Airfield :
LOGIN :

Register | Disclaimer

   EN    FR    IT 

 










Legend :    VFR   Marginal VFR   IFR   Intensive IFR   Very Intensive IFR
Visi :
Ceiling :
>= 8 km
>= 3000ft
5 to 8 km
1000 to 3000 ft
1500m to 5 km
500 to 1000 ft
800 to 1500m
200 to 500 ft
< 800m
< 200 ft
Symbols :   Thunderstorms  Fog  Heavy snow  Heavy precipitations  Wind > 20 kt
SIGMETs :     Misc.  Thunderstorms  Icing  Turbulence  Mountain Waves  Volcanic Ashes







- Airport Elevation : 228 ft
- IATA code : OPO


LPPR - Porto Fr. Sa Carneiro

CURRENT METAR :
  • 220030Z 03005KT CAVOK 10/08 Q1029

EXPIRED METARs :
  • 220000Z 04005KT CAVOK 10/08 Q1029
  • 212330Z 02004KT CAVOK 11/09 Q1030
  • 212300Z 01004KT CAVOK 11/08 Q1030
  • 212230Z 02003KT CAVOK 11/09 Q1030
  • 212200Z 03003KT 350V060 CAVOK 12/09 Q1030

TAF TAF LPPR
Valid from the 22 at 00:00 until the 23 at 00:00 UTC


212300Z 2200/2224 36005KT CAVOK
BECMG 2200/2202 04008KT
PROB30
TEMPO 2202/2206 10008KT
BECMG 2213/2215 33010KT
BECMG 2220/2222 01005KT
No reported NOTAMs for that airfield.



MET'MAP, your aeronautical weather chart ! - Copyright ORBIFLY December 2007 - Disclaimer

ORBIFLY MET'MAP TEAM :

Programming & Development : Alexandra Zaïnal
Concept & Development : Baudouin d'Aumeries
Co-Development & Prog : Marc-Olivier Méhu
Technical & hardware support : Manuel Goepfert

Contact : metmap@orbifly.com




SOURCES & CREDITS :

   NOAA